createdAt,value
2022-09-30T00:00:14.953Z,13.3
2022-09-30T00:02:30.459Z,11.4
2022-09-30T00:04:46.348Z,12.8
2022-09-30T00:07:02.072Z,12.8
2022-09-30T00:09:17.825Z,12.8
2022-09-30T00:11:33.540Z,13.4
2022-09-30T00:13:49.169Z,13.3
2022-09-30T00:16:04.315Z,13
2022-09-30T00:18:19.373Z,11.6
2022-09-30T00:20:35.763Z,12.9
2022-09-30T00:22:51.517Z,12.9
2022-09-30T00:25:07.346Z,12.9
2022-09-30T00:27:23.028Z,12.9
2022-09-30T00:29:39.378Z,12.9
2022-09-30T00:31:54.515Z,12.8
2022-09-30T00:34:10.226Z,13
2022-09-30T00:36:25.764Z,13.1
2022-09-30T00:38:41.537Z,12.9
2022-09-30T00:40:57.244Z,12.7
2022-09-30T00:43:12.902Z,12.3
2022-09-30T00:45:28.690Z,12.9
2022-09-30T00:47:44.348Z,12.6
2022-09-30T00:50:00.087Z,12.3
2022-09-30T00:52:15.632Z,12.6
2022-09-30T00:54:31.358Z,12.8
2022-09-30T00:56:47.109Z,12.6
2022-09-30T00:59:02.763Z,12.7
2022-09-30T01:01:18.481Z,13.2
2022-09-30T01:03:33.587Z,12.6
2022-09-30T01:05:49.078Z,10.9
2022-09-30T01:08:05.084Z,12.1
2022-09-30T01:10:20.798Z,12.4
2022-09-30T01:12:36.527Z,12.2
2022-09-30T01:14:52.578Z,12.5
2022-09-30T01:17:07.472Z,12.1
2022-09-30T01:19:23.055Z,11.1
2022-09-30T01:21:38.884Z,12.8
2022-09-30T01:23:54.779Z,12.5
2022-09-30T01:26:10.459Z,12.2
2022-09-30T01:28:26.196Z,12.4
2022-09-30T01:30:41.886Z,12.3
2022-09-30T01:32:57.545Z,12.6
2022-09-30T01:35:12.690Z,12.4
2022-09-30T01:37:28.286Z,10.6
2022-09-30T01:39:44.141Z,12.1
2022-09-30T01:41:59.998Z,12.4
2022-09-30T01:44:15.163Z,12.1
2022-09-30T01:46:31.338Z,10.9
2022-09-30T01:48:46.646Z,12.3
2022-09-30T01:51:01.887Z,12
2022-09-30T01:53:17.662Z,10.9
2022-09-30T01:55:32.700Z,11.9
2022-09-30T01:57:48.362Z,10.4
2022-09-30T02:00:04.662Z,12.4
2022-09-30T02:02:20.340Z,12.1
2022-09-30T02:04:36.123Z,11.9
2022-09-30T02:06:51.863Z,12.3
2022-09-30T02:09:07.496Z,11.8
2022-09-30T02:11:23.238Z,12.3
2022-09-30T02:13:38.882Z,11.9
2022-09-30T02:15:54.807Z,12.4
2022-09-30T02:18:10.330Z,12.1
2022-09-30T02:20:26.123Z,11.9
2022-09-30T02:22:41.737Z,12.1
2022-09-30T02:24:57.543Z,12
2022-09-30T02:27:13.304Z,12.2
2022-09-30T02:29:28.938Z,11.7
2022-09-30T02:31:44.795Z,11.9
2022-09-30T02:33:59.964Z,12.1
2022-09-30T02:36:14.671Z,10.6
2022-09-30T02:38:30.479Z,9.4
2022-09-30T02:40:46.318Z,12.5
2022-09-30T02:43:02.239Z,12.1
2022-09-30T02:45:18.281Z,12.1
2022-09-30T02:47:33.765Z,12.5
2022-09-30T02:49:49.543Z,12.3
2022-09-30T02:52:05.301Z,12.2
2022-09-30T02:54:21.006Z,11.9
2022-09-30T02:56:36.761Z,12.4
2022-09-30T02:58:52.582Z,12.1
2022-09-30T03:01:07.750Z,11.6
2022-09-30T03:03:23.330Z,10.5
2022-09-30T03:05:39.255Z,12.3
2022-09-30T03:07:54.961Z,12
2022-09-30T03:10:10.744Z,11.8
2022-09-30T03:12:26.524Z,11.2
2022-09-30T03:14:42.309Z,11.8
2022-09-30T03:16:57.506Z,11.8
2022-09-30T03:19:13.009Z,10.1
2022-09-30T03:21:29.065Z,12
2022-09-30T03:23:44.856Z,12
2022-09-30T03:26:00.544Z,12.3
2022-09-30T03:28:16.409Z,12.1
2022-09-30T03:30:32.274Z,12.4
2022-09-30T03:32:47.876Z,11.9
2022-09-30T03:35:03.621Z,12.2
2022-09-30T03:37:19.460Z,12.3
2022-09-30T03:39:35.362Z,12.4
2022-09-30T03:41:50.973Z,12.4
2022-09-30T03:44:06.695Z,12.3
2022-09-30T03:46:22.491Z,12.4
2022-09-30T03:48:37.547Z,12.1
2022-09-30T03:50:53.863Z,10.4
2022-09-30T03:53:08.765Z,12.8
2022-09-30T03:55:24.658Z,10.8
2022-09-30T03:57:40.669Z,12.5
2022-09-30T03:59:56.779Z,12
2022-09-30T04:02:12.782Z,12.3
2022-09-30T04:04:28.578Z,12.3
2022-09-30T04:06:44.405Z,12.8
2022-09-30T04:09:00.215Z,12.4
2022-09-30T04:11:16.195Z,12.7
2022-09-30T04:13:31.903Z,12.8
2022-09-30T04:15:48.013Z,12.2
2022-09-30T04:18:03.786Z,12.5
2022-09-30T04:20:19.823Z,12.2
2022-09-30T04:22:35.647Z,12.7
2022-09-30T04:24:51.807Z,12.8
2022-09-30T04:27:07.606Z,12.6
2022-09-30T04:29:23.413Z,12.5
2022-09-30T04:31:39.179Z,12.6
2022-09-30T04:33:54.935Z,12.2
2022-09-30T04:36:11.109Z,12.1
2022-09-30T04:38:26.698Z,11.8
2022-09-30T04:40:42.665Z,12.1
2022-09-30T04:42:58.473Z,12.6
2022-09-30T04:45:14.535Z,12.3
2022-09-30T04:47:29.535Z,12
2022-09-30T04:49:44.632Z,10.4
2022-09-30T04:51:59.458Z,11.3
2022-09-30T04:54:14.464Z,11.3
2022-09-30T04:56:30.501Z,9.7
2022-09-30T04:58:46.682Z,12.1
2022-09-30T05:01:02.163Z,12.1
2022-09-30T05:03:17.820Z,11
2022-09-30T05:05:34.121Z,12.8
2022-09-30T05:07:50.076Z,11.8
2022-09-30T05:10:05.492Z,12.1
2022-09-30T05:12:21.207Z,10.9
2022-09-30T05:14:37.088Z,12.2
2022-09-30T05:16:52.650Z,12.3
2022-09-30T05:19:08.326Z,10.9
2022-09-30T05:21:25.419Z,13
2022-09-30T05:23:40.416Z,13
2022-09-30T05:25:56.038Z,12.8
2022-09-30T05:28:10.802Z,10.9
2022-09-30T05:30:26.860Z,11
2022-09-30T05:32:42.774Z,12.9
2022-09-30T05:34:59.042Z,12.8
2022-09-30T05:37:14.272Z,12.4
2022-09-30T05:39:29.954Z,10.8
2022-09-30T05:41:46.571Z,12.9
2022-09-30T05:44:01.604Z,12.3
2022-09-30T05:46:16.689Z,11.2
2022-09-30T05:48:31.872Z,10.9
2022-09-30T05:50:47.533Z,11.1
2022-09-30T05:53:03.662Z,13
2022-09-30T05:55:21.322Z,13.1
2022-09-30T05:57:37.172Z,13.3
2022-09-30T05:59:53.084Z,13.5
2022-09-30T06:02:09.178Z,13.3
2022-09-30T06:04:24.827Z,13.3
2022-09-30T06:06:40.713Z,13.1
2022-09-30T06:08:56.542Z,12.8
2022-09-30T06:11:12.375Z,12.9
2022-09-30T06:13:28.205Z,13
2022-09-30T06:15:44.049Z,12.8
2022-09-30T06:17:59.770Z,12.8
2022-09-30T06:20:15.584Z,13
2022-09-30T06:22:31.499Z,13.1
2022-09-30T06:24:49.456Z,13.1
2022-09-30T06:27:03.495Z,13.2
2022-09-30T06:29:18.458Z,13
2022-09-30T06:31:33.499Z,11.6
2022-09-30T06:33:49.192Z,11.6
2022-09-30T06:36:05.051Z,13.3
2022-09-30T06:38:21.525Z,13.7
2022-09-30T06:40:37.628Z,13.8
2022-09-30T06:42:53.755Z,13.9
2022-09-30T06:45:09.929Z,14.3
2022-09-30T06:47:27.588Z,14
2022-09-30T06:49:54.968Z,14.2
2022-09-30T06:52:10.718Z,14.3
2022-09-30T06:54:26.521Z,14.1
2022-09-30T06:56:42.391Z,14.4
2022-09-30T06:58:58.136Z,14.8
2022-09-30T07:01:13.987Z,14.9
2022-09-30T07:03:30.013Z,14.6
2022-09-30T07:05:45.662Z,14.8
2022-09-30T07:08:01.479Z,15.6
2022-09-30T07:10:16.704Z,15.8
2022-09-30T07:12:32.621Z,13.5
2022-09-30T07:14:48.169Z,16.4
2022-09-30T07:17:04.118Z,16.4
2022-09-30T07:19:19.387Z,16.9
2022-09-30T07:21:35.104Z,15.1
2022-09-30T07:23:51.223Z,17.6
2022-09-30T07:26:07.146Z,17.1
2022-09-30T07:28:22.176Z,17.1
2022-09-30T07:30:59.791Z,16.4
2022-09-30T07:33:20.442Z,19.2
2022-09-30T07:35:36.247Z,20.6
2022-09-30T07:37:52.377Z,23.4
2022-09-30T07:40:07.855Z,24.3
2022-09-30T07:42:23.747Z,23.8
2022-09-30T07:44:38.724Z,25.1
2022-09-30T07:46:54.455Z,21.5
2022-09-30T07:49:10.424Z,24.9
2022-09-30T07:51:25.401Z,25.1
2022-09-30T07:53:41.054Z,24.5
2022-09-30T07:55:56.837Z,28.6
2022-09-30T07:58:26.656Z,29.8
2022-09-30T08:00:58.680Z,29.5
2022-09-30T08:03:14.220Z,29.4
2022-09-30T08:05:29.815Z,29.9
2022-09-30T08:07:45.343Z,31.1
2022-09-30T08:10:00.770Z,31
2022-09-30T08:12:16.333Z,31.6
2022-09-30T08:14:31.812Z,29.7
2022-09-30T08:16:47.382Z,32.6
2022-09-30T08:19:02.775Z,36.3
2022-09-30T08:21:18.136Z,37.2
2022-09-30T08:23:33.601Z,36.8
2022-09-30T08:25:49.030Z,38.9
2022-09-30T08:28:04.919Z,39.2
2022-09-30T08:30:37.694Z,36.9
2022-09-30T08:32:52.737Z,36.7
2022-09-30T08:35:07.942Z,35.1
2022-09-30T08:37:22.871Z,35.9
2022-09-30T08:39:37.855Z,35.4
2022-09-30T08:41:52.699Z,37.9
2022-09-30T08:44:22.085Z,38.6
2022-09-30T08:46:37.524Z,41.8
2022-09-30T08:48:52.486Z,43.4
2022-09-30T08:51:07.617Z,44.4
2022-09-30T08:53:22.498Z,45.1
2022-09-30T08:55:37.309Z,44.9
2022-09-30T08:57:51.908Z,44
2022-09-30T09:00:06.955Z,44.1
2022-09-30T09:02:21.873Z,43.4
2022-09-30T09:04:36.507Z,40
2022-09-30T09:06:51.760Z,42.3
2022-09-30T09:09:06.537Z,46.3
2022-09-30T09:11:21.402Z,46.7
2022-09-30T09:13:36.842Z,44.1
2022-09-30T09:15:51.034Z,44.6
2022-09-30T09:18:24.784Z,44.3
2022-09-30T09:20:36.274Z,44
2022-09-30T09:22:50.889Z,41.6
2022-09-30T09:25:05.533Z,41.6
2022-09-30T09:27:20.474Z,41.1
2022-09-30T09:29:35.287Z,39.9
2022-09-30T09:31:50.264Z,42.9
2022-09-30T09:34:04.963Z,43.3
2022-09-30T09:36:20.058Z,42.5
2022-09-30T09:38:35.066Z,46.6
2022-09-30T09:40:50.019Z,41.6
2022-09-30T09:43:05.169Z,47.3
2022-09-30T09:45:20.087Z,47.8
2022-09-30T09:47:35.100Z,49.7
2022-09-30T09:49:52.704Z,47.8
2022-09-30T09:52:04.774Z,46.1
2022-09-30T09:54:19.700Z,43
2022-09-30T09:56:34.512Z,40.9
2022-09-30T10:01:06.239Z,45.3
2022-09-30T10:03:18.979Z,46.1
2022-09-30T10:05:33.882Z,45.9
2022-09-30T10:07:49.244Z,46.1
2022-09-30T10:10:04.380Z,51.6
2022-09-30T10:12:18.922Z,48.2
2022-09-30T10:14:33.810Z,46.9
2022-09-30T10:16:48.650Z,47.7
2022-09-30T10:19:07.296Z,46.6
2022-09-30T10:21:19.083Z,45.5
2022-09-30T10:23:33.404Z,41.1
2022-09-30T10:25:48.268Z,38.7
2022-09-30T10:28:03.500Z,35.7
2022-09-30T10:30:18.477Z,32.1
2022-09-30T10:32:33.337Z,29.9
2022-09-30T10:34:48.148Z,29.4
2022-09-30T10:37:03.285Z,29.1
2022-09-30T10:39:18.117Z,28.7
2022-09-30T10:41:33.169Z,26.9
2022-09-30T10:43:47.879Z,27.1
2022-09-30T10:46:32.002Z,27.2
2022-09-30T10:48:33.932Z,26.1
2022-09-30T10:50:48.789Z,25.1
2022-09-30T10:53:03.708Z,25.6
2022-09-30T10:55:18.826Z,25.2
2022-09-30T10:57:33.351Z,25.8
2022-09-30T10:59:48.256Z,25.4
2022-09-30T11:02:05.847Z,25.2
2022-09-30T11:04:17.759Z,26.4
2022-09-30T11:06:32.868Z,24.8
2022-09-30T11:08:47.560Z,25
2022-09-30T11:11:04.681Z,25.1
2022-09-30T11:13:17.259Z,24.9
2022-09-30T11:15:32.222Z,24.4
2022-09-30T11:17:47.101Z,24.5
2022-09-30T11:20:01.779Z,24.8
2022-09-30T11:22:16.597Z,24.2
2022-09-30T11:24:31.486Z,24.1
2022-09-30T11:26:46.532Z,24.7
2022-09-30T11:29:01.594Z,24.3
2022-09-30T11:31:16.699Z,24.8
2022-09-30T11:33:31.455Z,23.8
2022-09-30T11:35:46.426Z,25
2022-09-30T11:38:01.261Z,24.5
2022-09-30T11:40:16.240Z,24.1
2022-09-30T11:42:31.463Z,24.3
2022-09-30T11:44:45.619Z,23.6
2022-09-30T11:47:01.725Z,23.8
2022-09-30T11:49:16.014Z,23.4
2022-09-30T11:51:31.195Z,23.8
2022-09-30T11:53:46.031Z,24.3
2022-09-30T11:56:00.868Z,24.4
2022-09-30T11:58:40.289Z,24
2022-09-30T12:00:47.076Z,24.7
2022-09-30T12:02:58.791Z,24.5
2022-09-30T12:05:13.655Z,23.9
2022-09-30T12:07:28.305Z,23.6
2022-09-30T12:09:43.149Z,23.3
2022-09-30T12:11:58.146Z,23.1
2022-09-30T12:14:12.860Z,23.4
2022-09-30T12:16:28.206Z,23.6
2022-09-30T12:18:42.559Z,23.4
2022-09-30T12:20:57.411Z,23.1
2022-09-30T12:23:12.287Z,23.4
2022-09-30T12:25:27.255Z,23.6
2022-09-30T12:27:42.166Z,23.1
2022-09-30T12:29:56.884Z,23.3
2022-09-30T12:32:11.805Z,23.6
2022-09-30T12:34:26.557Z,22.6
2022-09-30T12:36:41.479Z,23.3
2022-09-30T12:38:56.314Z,22.9
2022-09-30T12:41:11.122Z,23
2022-09-30T12:43:25.964Z,22.5
2022-09-30T12:45:40.693Z,23
2022-09-30T12:47:55.504Z,22.7
2022-09-30T12:50:10.658Z,22.5
2022-09-30T12:52:25.259Z,21.6
2022-09-30T12:54:41.429Z,22.8
2022-09-30T12:56:54.967Z,21.3
2022-09-30T12:59:09.793Z,22.2
2022-09-30T13:01:24.638Z,23
2022-09-30T13:03:39.482Z,22.9
2022-09-30T13:05:54.326Z,22.8
2022-09-30T13:08:09.252Z,22.3
2022-09-30T13:10:24.017Z,22
2022-09-30T13:12:38.782Z,22.3
2022-09-30T13:14:53.679Z,22.4
2022-09-30T13:17:08.739Z,22
2022-09-30T13:19:23.405Z,21.8
2022-09-30T13:21:38.330Z,22.1
2022-09-30T13:23:53.197Z,21.9
2022-09-30T13:26:08.223Z,21.6
2022-09-30T13:28:22.813Z,22.1
2022-09-30T13:30:37.614Z,21.8
2022-09-30T13:32:52.511Z,21.6
2022-09-30T13:35:07.233Z,21.9
2022-09-30T13:37:22.188Z,21.4
2022-09-30T13:39:37.176Z,21.8
2022-09-30T13:42:18.595Z,21.7
2022-09-30T13:44:33.433Z,21
2022-09-30T13:46:48.289Z,21
2022-09-30T13:49:03.171Z,20.7
2022-09-30T13:51:18.078Z,20.7
2022-09-30T13:53:32.835Z,20.9
2022-09-30T13:55:47.738Z,20.9
2022-09-30T13:58:02.529Z,20.7
2022-09-30T14:00:17.785Z,20.4
2022-09-30T14:02:32.194Z,20.5
2022-09-30T14:04:47.105Z,20.9
2022-09-30T14:07:01.841Z,20.3
2022-09-30T14:09:16.667Z,20.2
2022-09-30T14:11:31.640Z,20.8
2022-09-30T14:13:46.443Z,20.3
2022-09-30T14:16:01.285Z,20.3
2022-09-30T14:18:17.783Z,20.6
2022-09-30T14:20:31.000Z,19.9
2022-09-30T14:22:45.837Z,20.4
2022-09-30T14:25:00.587Z,19.9
2022-09-30T14:27:15.547Z,20.4
2022-09-30T14:29:30.330Z,20.2
2022-09-30T14:31:45.253Z,20.3
2022-09-30T14:34:00.108Z,19.7
2022-09-30T14:36:14.823Z,19.9
2022-09-30T14:38:29.902Z,20.1
2022-09-30T14:42:59.482Z,19.8
2022-09-30T14:45:14.267Z,19.9
2022-09-30T14:47:29.280Z,20.2
2022-09-30T14:49:43.864Z,19.9
2022-09-30T14:51:58.707Z,19.9
2022-09-30T14:54:13.626Z,20.1
2022-09-30T14:56:28.482Z,19.5
2022-09-30T14:58:43.268Z,19.6
2022-09-30T15:00:58.292Z,19.3
2022-09-30T15:03:12.966Z,19.3
2022-09-30T15:05:27.860Z,19.3
2022-09-30T15:07:42.782Z,19.4
2022-09-30T15:09:57.549Z,19
2022-09-30T15:12:12.417Z,18.6
2022-09-30T15:14:27.401Z,19.1
2022-09-30T15:16:42.088Z,18.9
2022-09-30T15:18:56.897Z,18
2022-09-30T15:21:11.714Z,18.8
2022-09-30T15:23:26.507Z,18.9
2022-09-30T15:25:41.347Z,18.9
2022-09-30T15:32:26.001Z,19.1
2022-09-30T15:34:41.237Z,18.2
2022-09-30T15:36:56.251Z,22.3
2022-09-30T15:39:11.114Z,18.6
2022-09-30T15:41:26.077Z,18.9
2022-09-30T15:45:55.631Z,18
2022-09-30T15:48:11.112Z,17.8
2022-09-30T15:50:26.432Z,20.9
2022-09-30T15:52:41.811Z,20.5
2022-09-30T15:54:56.626Z,21
2022-09-30T15:57:11.651Z,20.4
2022-09-30T15:59:26.518Z,20.5
2022-09-30T16:01:41.446Z,20.1
2022-09-30T16:03:56.462Z,20
2022-09-30T16:06:11.643Z,20
2022-09-30T16:08:26.301Z,19.4
2022-09-30T16:10:41.200Z,20.1
2022-09-30T16:12:56.168Z,19.7
2022-09-30T16:15:11.426Z,19.6
2022-09-30T16:17:26.844Z,19
2022-09-30T16:19:42.315Z,18.9
2022-09-30T16:21:57.373Z,18.8
2022-09-30T16:24:12.222Z,17.9
2022-09-30T16:26:27.674Z,17.1
2022-09-30T16:28:42.881Z,18.8
2022-09-30T16:30:58.267Z,17.4
2022-09-30T16:33:14.033Z,18.1
2022-09-30T16:35:29.193Z,17.7
2022-09-30T16:37:44.759Z,16.1
2022-09-30T16:40:00.269Z,17.8
2022-09-30T16:42:16.058Z,17.6
2022-09-30T16:44:31.576Z,17.5
2022-09-30T16:46:47.307Z,17.3
2022-09-30T16:49:02.380Z,17.3
2022-09-30T16:51:18.512Z,16.6
2022-09-30T16:53:32.325Z,18.6
2022-09-30T16:55:47.135Z,16.6
2022-09-30T16:58:02.896Z,16.3
2022-09-30T17:00:18.692Z,17.2
2022-09-30T17:02:34.002Z,15.3
2022-09-30T17:04:49.540Z,16.9
2022-09-30T17:07:05.470Z,17.4
2022-09-30T17:09:20.951Z,17.6
2022-09-30T17:11:36.987Z,17.3
2022-09-30T17:13:52.213Z,17.4
2022-09-30T17:16:07.887Z,17.3
2022-09-30T17:20:39.066Z,17.4
2022-09-30T17:22:54.834Z,17.3
2022-09-30T17:25:10.339Z,17.5
2022-09-30T17:27:26.055Z,17.4
2022-09-30T17:29:50.574Z,17.1
2022-09-30T17:32:06.681Z,17.3
2022-09-30T17:34:22.213Z,17.6
2022-09-30T17:36:37.744Z,17.8
2022-09-30T17:38:53.234Z,17.7
2022-09-30T17:41:08.691Z,17.6
2022-09-30T17:43:24.358Z,17.4
2022-09-30T17:45:39.807Z,17.4
2022-09-30T17:47:55.151Z,17.3
2022-09-30T17:50:10.834Z,17.3
2022-09-30T17:52:26.276Z,17.2
2022-09-30T17:54:41.638Z,17.4
2022-09-30T17:56:57.332Z,17.4
2022-09-30T17:59:13.182Z,17.2
2022-09-30T18:01:28.124Z,17.4
2022-09-30T18:03:43.594Z,17.4
2022-09-30T18:06:00.383Z,17.1
2022-09-30T18:08:14.580Z,17.4
2022-09-30T18:10:30.045Z,17.6
2022-09-30T18:12:45.563Z,17.6
2022-09-30T18:15:01.036Z,17.4
2022-09-30T18:17:16.435Z,17.6
2022-09-30T18:19:31.988Z,16.9
2022-09-30T18:21:46.876Z,17.2
2022-09-30T18:24:03.077Z,16.8
2022-09-30T18:26:18.385Z,17.3
2022-09-30T18:28:33.958Z,17.2
2022-09-30T18:30:49.340Z,17.1
2022-09-30T18:33:04.879Z,16.9
2022-09-30T18:35:20.378Z,16.8
2022-09-30T18:37:35.812Z,16.7
2022-09-30T18:39:51.356Z,16.5
2022-09-30T18:42:07.069Z,17.1
2022-09-30T18:44:22.311Z,17.1
2022-09-30T18:46:37.829Z,16.9
2022-09-30T18:48:53.314Z,16.8
2022-09-30T18:51:08.657Z,16.8
2022-09-30T18:53:23.725Z,16.5
2022-09-30T18:55:39.234Z,15.5
2022-09-30T18:57:55.031Z,16.8
2022-09-30T19:00:10.697Z,16.6
2022-09-30T19:02:25.469Z,15.5
2022-09-30T19:04:40.644Z,16.4
2022-09-30T19:06:56.135Z,14.1
2022-09-30T19:09:11.356Z,16.6
2022-09-30T19:11:27.466Z,16.7
2022-09-30T19:13:43.246Z,16.7
2022-09-30T19:15:58.739Z,16.6
2022-09-30T19:18:14.200Z,16.6
2022-09-30T19:20:29.441Z,16.3
2022-09-30T19:22:44.801Z,15.3
2022-09-30T19:25:00.483Z,16.4
2022-09-30T19:27:15.992Z,16
2022-09-30T19:29:31.070Z,14.5
2022-09-30T19:31:46.851Z,16.1
2022-09-30T19:34:01.905Z,15.9
2022-09-30T19:36:17.431Z,14.6
2022-09-30T19:38:37.525Z,16.1
2022-09-30T19:40:50.378Z,14.5
2022-09-30T19:43:06.172Z,16.3
2022-09-30T19:45:24.450Z,16.2
2022-09-30T19:47:37.479Z,16.3
2022-09-30T19:49:52.415Z,16.1
2022-09-30T19:52:16.601Z,14.4
2022-09-30T19:54:35.789Z,15.9
2022-09-30T19:56:41.448Z,15.8
2022-09-30T19:58:57.090Z,15.6
2022-09-30T20:01:12.634Z,15.7
2022-09-30T20:03:27.756Z,15.9
2022-09-30T20:05:43.229Z,14.3
2022-09-30T20:07:58.899Z,15.7
2022-09-30T20:10:14.006Z,15.6
2022-09-30T20:12:29.824Z,13.9
2022-09-30T20:14:45.242Z,15.6
2022-09-30T20:17:00.669Z,15.7
2022-09-30T20:19:15.245Z,14.5
2022-09-30T20:21:31.090Z,13.9
2022-09-30T20:23:46.663Z,15.4
2022-09-30T20:26:02.337Z,15.6
2022-09-30T20:28:18.113Z,15.8
2022-09-30T20:30:33.666Z,15.1
2022-09-30T20:32:49.269Z,15.3
2022-09-30T20:35:04.352Z,15.3
2022-09-30T20:37:19.843Z,14.4
2022-09-30T20:39:35.579Z,15.3
2022-09-30T20:41:50.805Z,15.3
2022-09-30T20:44:06.179Z,13.6
2022-09-30T20:46:21.820Z,15.3
2022-09-30T20:48:37.064Z,15.6
2022-09-30T20:50:52.462Z,13.5
2022-09-30T20:53:08.189Z,14.8
2022-09-30T20:55:24.686Z,15.2
2022-09-30T20:57:54.486Z,15.1
2022-09-30T21:00:10.020Z,15.1
2022-09-30T21:02:24.687Z,15
2022-09-30T21:04:40.741Z,14.1
2022-09-30T21:06:56.262Z,15.3
2022-09-30T21:09:11.961Z,14.8
2022-09-30T21:11:27.138Z,15.3
2022-09-30T21:13:42.586Z,13
2022-09-30T21:15:58.482Z,15.4
2022-09-30T21:18:13.938Z,14.9
2022-09-30T21:20:29.711Z,14.9
2022-09-30T21:22:45.475Z,14.8
2022-09-30T21:25:00.335Z,14.6
2022-09-30T21:27:15.799Z,13.4
2022-09-30T21:29:30.920Z,14.3
2022-09-30T21:31:45.858Z,12.4
2022-09-30T21:34:01.400Z,11.8
2022-09-30T21:36:17.290Z,14.5
2022-09-30T21:38:32.966Z,14.1
2022-09-30T21:40:48.700Z,14.6
2022-09-30T21:43:04.498Z,14.4
2022-09-30T21:45:19.823Z,14.5
2022-09-30T21:47:34.984Z,14.4
2022-09-30T21:49:50.408Z,13.6
2022-09-30T21:52:06.288Z,14.9
2022-09-30T21:54:21.931Z,14.4
2022-09-30T21:56:37.466Z,14.6
2022-09-30T21:58:53.065Z,14.6
2022-09-30T22:01:08.703Z,14.3
2022-09-30T22:03:24.250Z,15.4
2022-09-30T22:05:39.520Z,14.4
2022-09-30T22:07:55.407Z,12.9
2022-09-30T22:10:10.524Z,14.8
2022-09-30T22:12:26.260Z,14.3
2022-09-30T22:14:41.864Z,13.7
2022-09-30T22:16:57.442Z,14.3
2022-09-30T22:19:13.002Z,13.8
2022-09-30T22:21:28.652Z,13.9
2022-09-30T22:23:44.238Z,14.3
2022-09-30T22:25:59.827Z,14.5
2022-09-30T22:28:15.754Z,13.8
2022-09-30T22:30:31.000Z,14
2022-09-30T22:32:47.151Z,13.6
2022-09-30T22:35:02.672Z,14.3
2022-09-30T22:37:17.690Z,14.6
2022-09-30T22:39:33.324Z,14.2
2022-09-30T22:41:48.782Z,13.7
2022-09-30T22:44:04.376Z,14.1
2022-09-30T22:46:19.989Z,14.1
2022-09-30T22:48:35.590Z,13.9
2022-09-30T22:50:51.134Z,13.9
2022-09-30T22:53:06.730Z,13.9
2022-09-30T22:55:22.318Z,13.6
2022-09-30T22:57:37.857Z,13.8
2022-09-30T22:59:53.474Z,13.7
2022-09-30T23:02:09.050Z,13.3
2022-09-30T23:04:24.605Z,13.2
2022-09-30T23:06:40.186Z,12.4
2022-09-30T23:08:55.364Z,13.4
2022-09-30T23:11:11.003Z,13.6
2022-09-30T23:13:26.878Z,13.4
2022-09-30T23:15:41.682Z,13.5
2022-09-30T23:17:56.626Z,12.4
2022-09-30T23:20:12.203Z,12.1
2022-09-30T23:22:27.363Z,13.4
2022-09-30T23:24:42.999Z,11.3
2022-09-30T23:26:58.886Z,13.4
2022-09-30T23:29:13.933Z,13.1
2022-09-30T23:31:29.628Z,12.1
2022-09-30T23:33:45.626Z,13.1
2022-09-30T23:36:00.363Z,13.6
2022-09-30T23:38:15.897Z,11.8
2022-09-30T23:40:31.639Z,13.7
2022-09-30T23:42:47.383Z,13.6
2022-09-30T23:45:02.461Z,13.4
2022-09-30T23:47:18.022Z,11.6
2022-09-30T23:49:33.766Z,13.4
2022-09-30T23:51:49.505Z,13.9
2022-09-30T23:54:05.223Z,13.3
2022-09-30T23:56:20.802Z,13.3
2022-09-30T23:58:36.445Z,13.1
